createdAt,value
2023-03-20T00:02:04.489Z,9.00
2023-03-20T00:04:32.541Z,8.90
2023-03-20T00:07:00.839Z,8.90
2023-03-20T00:09:28.793Z,8.80
2023-03-20T00:11:56.946Z,9.00
2023-03-20T00:14:26.216Z,8.90
2023-03-20T00:16:54.234Z,8.80
2023-03-20T00:19:25.868Z,8.90
2023-03-20T00:21:55.871Z,8.80
2023-03-20T00:24:24.798Z,8.80
2023-03-20T00:26:54.064Z,8.80
2023-03-20T00:29:24.394Z,8.80
2023-03-20T00:31:53.026Z,8.90
2023-03-20T00:34:25.648Z,9.00
2023-03-20T00:36:54.875Z,8.90
2023-03-20T00:39:23.755Z,8.80
2023-03-20T00:41:55.924Z,8.80
2023-03-20T00:44:27.663Z,8.80
2023-03-20T00:46:58.195Z,8.80
2023-03-20T00:49:30.731Z,8.80
2023-03-20T00:51:59.020Z,8.70
2023-03-20T00:54:26.982Z,8.70
2023-03-20T00:56:59.112Z,8.70
2023-03-20T00:59:31.199Z,8.70
2023-03-20T01:01:59.866Z,8.70
2023-03-20T01:04:35.467Z,8.70
2023-03-20T01:07:03.805Z,8.60
2023-03-20T01:09:32.153Z,8.60
2023-03-20T01:12:01.699Z,8.50
2023-03-20T01:14:29.891Z,8.50
2023-03-20T01:16:58.186Z,8.50
2023-03-20T01:19:26.272Z,8.50
2023-03-20T01:21:56.214Z,8.50
2023-03-20T01:24:24.174Z,8.50
2023-03-20T01:26:52.638Z,8.50
2023-03-20T01:29:23.039Z,8.40
2023-03-20T01:31:52.040Z,8.50
2023-03-20T01:34:21.943Z,8.50
2023-03-20T01:36:52.579Z,8.50
2023-03-20T01:39:24.400Z,8.60
2023-03-20T01:41:54.219Z,8.50
2023-03-20T01:44:25.395Z,8.50
2023-03-20T01:46:58.071Z,8.50
2023-03-20T01:50:04.059Z,8.40
2023-03-20T01:52:32.052Z,8.40
2023-03-20T01:55:02.598Z,8.40
2023-03-20T01:57:30.919Z,8.30
2023-03-20T02:00:03.195Z,8.20
2023-03-20T02:02:44.953Z,8.20
2023-03-20T02:05:18.127Z,8.10
2023-03-20T02:07:51.971Z,8.00
2023-03-20T02:10:22.082Z,8.00
2023-03-20T02:12:59.813Z,8.00
2023-03-20T02:15:33.404Z,8.00
2023-03-20T02:18:13.977Z,8.00
2023-03-20T02:20:57.555Z,8.00
2023-03-20T02:24:02.010Z,8.00
2023-03-20T02:26:51.599Z,8.00
2023-03-20T02:29:53.625Z,8.10
2023-03-20T02:32:48.586Z,8.10
2023-03-20T02:35:56.658Z,8.10
2023-03-20T02:39:00.304Z,8.10
2023-03-20T02:41:34.129Z,8.20
2023-03-20T02:44:07.537Z,8.20
2023-03-20T02:46:47.971Z,8.20
2023-03-20T02:49:40.322Z,8.20
2023-03-20T02:52:17.321Z,8.20
2023-03-20T02:54:55.612Z,8.20
2023-03-20T02:57:32.131Z,8.20
2023-03-20T03:00:09.776Z,8.30
2023-03-20T03:02:44.964Z,8.20
2023-03-20T03:05:19.532Z,8.10
2023-03-20T03:07:50.418Z,8.10
2023-03-20T03:10:24.963Z,8.00
2023-03-20T03:12:54.719Z,7.90
2023-03-20T03:15:28.599Z,7.70
2023-03-20T03:17:59.165Z,7.60
2023-03-20T03:20:30.895Z,7.60
2023-03-20T03:22:59.708Z,7.50
2023-03-20T03:25:34.186Z,7.40
2023-03-20T03:28:06.755Z,7.30
2023-03-20T03:30:38.091Z,7.40
2023-03-20T03:33:19.199Z,7.40
2023-03-20T03:35:48.185Z,7.40
2023-03-20T03:38:29.508Z,7.40
2023-03-20T03:41:12.943Z,7.40
2023-03-20T03:43:45.956Z,7.50
2023-03-20T03:46:17.947Z,7.60
2023-03-20T03:48:51.465Z,7.60
2023-03-20T03:51:24.742Z,7.60
2023-03-20T03:54:05.761Z,7.60
2023-03-20T03:56:38.166Z,7.50
2023-03-20T03:59:10.792Z,7.60
2023-03-20T04:01:44.338Z,7.50
2023-03-20T04:04:16.428Z,7.50
2023-03-20T04:06:44.517Z,7.50
2023-03-20T04:09:12.639Z,7.50
2023-03-20T04:11:42.084Z,7.60
2023-03-20T04:14:10.095Z,7.60
2023-03-20T04:16:38.073Z,7.60
2023-03-20T04:19:06.299Z,7.50
2023-03-20T04:21:34.423Z,7.50
2023-03-20T04:24:05.798Z,7.40
2023-03-20T04:26:33.826Z,7.40
2023-03-20T04:29:03.546Z,7.40
2023-03-20T04:31:54.791Z,7.30
2023-03-20T04:34:39.354Z,7.20
2023-03-20T04:37:22.857Z,7.20
2023-03-20T04:39:59.390Z,7.20
2023-03-20T04:42:27.657Z,7.20
2023-03-20T04:45:02.511Z,7.20
2023-03-20T04:47:31.724Z,7.10
2023-03-20T04:49:59.964Z,7.20
2023-03-20T04:52:28.497Z,7.10
2023-03-20T04:54:56.704Z,7.20
2023-03-20T04:57:25.542Z,7.10
2023-03-20T04:59:54.618Z,7.00
2023-03-20T05:02:24.780Z,7.00
2023-03-20T05:04:54.081Z,7.00
2023-03-20T05:07:22.065Z,7.00
2023-03-20T05:09:57.735Z,7.00
2023-03-20T05:12:27.132Z,7.00
2023-03-20T05:15:03.997Z,7.00
2023-03-20T05:18:03.956Z,6.90
2023-03-20T05:20:56.076Z,7.00
2023-03-20T05:23:42.561Z,6.90
2023-03-20T05:26:29.034Z,6.90
2023-03-20T05:29:11.808Z,6.90
2023-03-20T05:31:58.297Z,6.90
2023-03-20T05:34:35.499Z,6.90
2023-03-20T05:37:12.453Z,7.00
2023-03-20T05:39:56.315Z,7.00
2023-03-20T05:42:39.237Z,6.90
2023-03-20T05:45:28.875Z,7.00
2023-03-20T05:48:17.159Z,7.00
2023-03-20T05:51:00.381Z,7.00
2023-03-20T05:53:51.417Z,7.00
2023-03-20T05:56:38.304Z,6.90
2023-03-20T05:59:35.532Z,7.00
2023-03-20T06:02:22.395Z,7.00
2023-03-20T06:04:59.682Z,7.00
2023-03-20T06:07:37.721Z,7.00
2023-03-20T06:10:12.662Z,7.00
2023-03-20T06:12:40.944Z,7.00
2023-03-20T06:15:10.046Z,7.00
2023-03-20T06:17:42.512Z,7.10
2023-03-20T06:20:15.416Z,7.20
2023-03-20T06:22:44.810Z,7.40
2023-03-20T06:25:13.095Z,7.40
2023-03-20T06:27:44.888Z,7.30
2023-03-20T06:30:13.824Z,7.20
2023-03-20T06:32:43.079Z,7.20
2023-03-20T06:35:13.475Z,7.20
2023-03-20T06:37:47.181Z,7.20
2023-03-20T06:40:21.700Z,7.30
2023-03-20T06:42:49.992Z,7.20
2023-03-20T06:45:18.941Z,7.20
2023-03-20T06:48:01.917Z,7.30
2023-03-20T06:50:29.962Z,7.30
2023-03-20T06:53:00.651Z,7.30
2023-03-20T06:55:42.646Z,7.40
2023-03-20T06:58:11.655Z,7.40
2023-03-20T07:00:39.948Z,7.40
2023-03-20T07:03:10.136Z,7.40
2023-03-20T07:05:39.203Z,7.50
2023-03-20T07:08:11.376Z,7.50
2023-03-20T07:10:39.589Z,7.60
2023-03-20T07:13:07.640Z,7.70
2023-03-20T07:15:38.080Z,7.70
2023-03-20T07:18:08.440Z,7.80
2023-03-20T07:20:36.730Z,7.70
2023-03-20T07:23:04.854Z,7.80
2023-03-20T07:25:42.817Z,7.90
2023-03-20T07:28:16.012Z,8.10
2023-03-20T07:30:50.462Z,8.20
2023-03-20T07:33:19.459Z,8.30
2023-03-20T07:35:47.972Z,8.20
2023-03-20T07:38:15.995Z,8.30
2023-03-20T07:40:54.860Z,8.20
2023-03-20T07:43:22.905Z,8.30
2023-03-20T07:46:22.884Z,8.40
2023-03-20T07:48:51.355Z,8.70
2023-03-20T07:51:19.410Z,8.50
2023-03-20T07:53:47.473Z,8.60
2023-03-20T07:56:16.805Z,8.70
2023-03-20T07:58:44.814Z,8.70
2023-03-20T08:01:12.798Z,8.80
2023-03-20T08:03:41.700Z,8.90
2023-03-20T08:06:10.907Z,9.10
2023-03-20T08:08:39.376Z,9.20
2023-03-20T08:11:07.719Z,9.40
2023-03-20T08:13:37.253Z,9.40
2023-03-20T08:16:06.026Z,9.30
2023-03-20T08:18:34.042Z,9.30
2023-03-20T08:21:02.084Z,9.40
2023-03-20T08:23:30.269Z,9.50
2023-03-20T08:25:58.261Z,9.60
2023-03-20T08:28:43.977Z,9.80
2023-03-20T08:31:16.801Z,9.70
2023-03-20T08:33:45.040Z,9.80
2023-03-20T08:36:15.087Z,9.50
2023-03-20T08:38:43.229Z,9.30
2023-03-20T08:41:11.299Z,9.20
2023-03-20T08:43:39.323Z,9.20
2023-03-20T08:46:08.068Z,9.20
2023-03-20T08:48:37.629Z,9.20
2023-03-20T08:51:09.424Z,9.30
2023-03-20T08:53:37.619Z,9.20
2023-03-20T08:56:06.255Z,9.40
2023-03-20T08:58:34.335Z,9.50
2023-03-20T09:01:06.219Z,9.50
2023-03-20T09:03:34.206Z,9.60
2023-03-20T09:06:06.912Z,9.60
2023-03-20T09:08:35.418Z,9.50
2023-03-20T09:11:03.599Z,9.40
2023-03-20T09:13:31.646Z,9.30
2023-03-20T09:15:59.657Z,9.40
2023-03-20T09:18:27.713Z,9.40
2023-03-20T09:20:56.492Z,9.40
2023-03-20T09:23:25.922Z,9.40
2023-03-20T09:25:53.941Z,9.50
2023-03-20T09:28:21.965Z,9.60
2023-03-20T09:30:50.105Z,9.70
2023-03-20T09:33:18.788Z,9.60
2023-03-20T09:35:47.005Z,9.60
2023-03-20T09:38:15.512Z,9.60
2023-03-20T09:40:52.448Z,9.80
2023-03-20T09:43:34.913Z,9.80
2023-03-20T09:46:17.699Z,9.70
2023-03-20T09:48:54.985Z,9.80
2023-03-20T09:51:32.823Z,9.50
2023-03-20T09:54:05.257Z,9.30
2023-03-20T09:56:35.369Z,9.50
2023-03-20T09:59:06.372Z,9.50
2023-03-20T10:01:42.276Z,9.50
2023-03-20T10:04:12.305Z,9.60
2023-03-20T10:06:40.344Z,9.80
2023-03-20T10:09:16.219Z,9.60
2023-03-20T10:12:09.842Z,9.70
2023-03-20T10:14:49.003Z,9.80
2023-03-20T10:17:29.074Z,9.90
2023-03-20T10:19:59.681Z,9.90
2023-03-20T10:22:34.513Z,9.70
2023-03-20T10:25:08.648Z,9.90
2023-03-20T10:27:41.800Z,9.90
2023-03-20T10:30:24.447Z,9.90
2023-03-20T10:33:03.306Z,9.70
2023-03-20T10:35:38.516Z,9.50
2023-03-20T10:38:18.759Z,9.40
2023-03-20T10:40:47.524Z,9.30
2023-03-20T10:43:21.483Z,9.50
2023-03-20T10:45:53.039Z,9.50
2023-03-20T10:48:27.310Z,9.50
2023-03-20T10:50:57.580Z,9.50
2023-03-20T10:53:31.163Z,9.50
2023-03-20T10:56:03.042Z,9.50
2023-03-20T10:58:36.416Z,9.50
2023-03-20T11:01:04.718Z,9.60
2023-03-20T11:03:34.265Z,9.70
2023-03-20T11:06:10.191Z,9.40
2023-03-20T11:08:41.819Z,9.60
2023-03-20T11:11:10.706Z,9.50
2023-03-20T11:13:42.739Z,9.40
2023-03-20T11:16:19.024Z,9.60
2023-03-20T11:18:49.188Z,9.40
2023-03-20T11:21:21.328Z,9.50
2023-03-20T11:23:50.369Z,9.60
2023-03-20T11:26:20.737Z,9.40
2023-03-20T11:28:53.728Z,9.30
2023-03-20T11:31:28.767Z,9.10
2023-03-20T11:34:11.692Z,9.20
2023-03-20T11:36:41.276Z,9.10
2023-03-20T11:39:14.936Z,9.30
2023-03-20T11:41:48.324Z,9.40
2023-03-20T11:44:25.438Z,9.30
2023-03-20T11:46:58.381Z,9.20
2023-03-20T11:49:29.229Z,9.40
2023-03-20T11:52:01.873Z,9.30
2023-03-20T11:54:31.244Z,9.30
2023-03-20T11:57:00.421Z,9.00
2023-03-20T11:59:33.142Z,8.90
2023-03-20T12:02:02.834Z,9.20
2023-03-20T12:04:33.298Z,9.10
2023-03-20T12:07:11.094Z,9.20
2023-03-20T12:09:43.718Z,9.30
2023-03-20T12:12:22.222Z,9.20
2023-03-20T12:14:57.457Z,9.40
2023-03-20T12:17:43.809Z,9.50
2023-03-20T12:20:25.666Z,9.50
2023-03-20T12:23:02.469Z,9.30
2023-03-20T12:25:38.100Z,9.40
2023-03-20T12:28:13.547Z,9.40
2023-03-20T12:30:55.375Z,9.50
2023-03-20T12:33:33.511Z,9.80
2023-03-20T12:36:03.114Z,9.90
2023-03-20T12:38:32.632Z,9.80
2023-03-20T12:41:11.540Z,9.80
2023-03-20T12:44:15.000Z,10.00
2023-03-20T12:46:51.879Z,10.10
2023-03-20T12:49:32.042Z,10.10
2023-03-20T12:52:10.356Z,10.10
2023-03-20T12:54:59.560Z,10.00
2023-03-20T12:57:35.611Z,9.90
2023-03-20T13:00:17.034Z,10.00
2023-03-20T13:02:59.381Z,10.20
2023-03-20T13:05:36.976Z,10.00
2023-03-20T13:08:27.557Z,9.90
2023-03-20T13:11:03.559Z,10.10
2023-03-20T13:13:38.144Z,10.20
2023-03-20T13:16:15.231Z,10.30
2023-03-20T13:18:58.769Z,10.50
2023-03-20T13:21:36.689Z,10.50
2023-03-20T13:24:23.625Z,10.50
2023-03-20T13:26:59.888Z,10.80
2023-03-20T13:29:34.836Z,10.90
2023-03-20T13:32:13.109Z,10.60
2023-03-20T13:34:56.346Z,10.70
2023-03-20T13:37:31.742Z,10.80
2023-03-20T13:40:06.905Z,10.50
2023-03-20T13:42:40.299Z,10.70
2023-03-20T13:45:23.038Z,10.50
2023-03-20T13:47:53.480Z,10.50
2023-03-20T13:50:37.327Z,10.50
2023-03-20T13:53:15.852Z,10.40
2023-03-20T13:55:49.625Z,10.50
2023-03-20T13:58:29.587Z,10.60
2023-03-20T14:01:03.775Z,10.60
2023-03-20T14:03:35.667Z,10.40
2023-03-20T14:06:17.877Z,10.50
2023-03-20T14:08:50.086Z,10.60
2023-03-20T14:11:35.072Z,10.50
2023-03-20T14:14:09.561Z,10.60
2023-03-20T14:16:37.720Z,10.50
2023-03-20T14:19:09.782Z,10.50
2023-03-20T14:21:40.547Z,10.60
2023-03-20T14:24:12.799Z,10.50
2023-03-20T14:26:42.796Z,10.50
2023-03-20T14:29:36.339Z,10.50
2023-03-20T14:32:22.056Z,10.60
2023-03-20T14:34:51.949Z,10.60
2023-03-20T14:37:37.418Z,10.50
2023-03-20T14:40:16.306Z,10.50
2023-03-20T14:42:52.236Z,10.40
2023-03-20T14:45:37.322Z,10.40
2023-03-20T14:48:12.557Z,10.50
2023-03-20T14:50:50.924Z,10.60
2023-03-20T14:53:22.317Z,10.60
2023-03-20T14:56:06.737Z,10.40
2023-03-20T14:58:54.577Z,10.40
2023-03-20T15:01:49.156Z,10.30
2023-03-20T15:04:29.483Z,10.30
2023-03-20T15:07:00.395Z,10.40
2023-03-20T15:09:33.894Z,10.40
2023-03-20T15:12:04.325Z,10.40
2023-03-20T15:14:41.827Z,10.40
2023-03-20T15:17:18.990Z,10.30
2023-03-20T15:19:47.213Z,10.40
2023-03-20T15:22:21.614Z,10.50
2023-03-20T15:24:56.731Z,10.50
2023-03-20T15:27:29.496Z,10.60
2023-03-20T15:30:01.381Z,10.60
2023-03-20T15:32:29.830Z,10.50
2023-03-20T15:34:57.925Z,10.50
2023-03-20T15:37:27.912Z,10.50
2023-03-20T15:39:59.165Z,10.40
2023-03-20T15:42:27.763Z,10.30
2023-03-20T15:44:57.498Z,10.20
2023-03-20T15:47:26.665Z,10.20
2023-03-20T15:49:56.460Z,10.10
2023-03-20T15:52:31.894Z,10.20
2023-03-20T15:55:05.218Z,10.10
2023-03-20T15:57:36.080Z,10.00
2023-03-20T16:00:07.067Z,10.00
2023-03-20T16:02:36.970Z,9.90
2023-03-20T16:05:06.170Z,10.00
2023-03-20T16:07:34.572Z,10.00
2023-03-20T16:10:04.115Z,10.00
2023-03-20T16:12:32.852Z,10.00
2023-03-20T16:15:00.998Z,10.10
2023-03-20T16:17:29.275Z,10.00
2023-03-20T16:19:57.285Z,10.10
2023-03-20T16:22:28.546Z,10.10
2023-03-20T16:24:58.516Z,10.20
2023-03-20T16:27:30.227Z,10.20
2023-03-20T16:29:58.701Z,10.30
2023-03-20T16:32:34.868Z,10.30
2023-03-20T16:35:06.693Z,10.30
2023-03-20T16:37:42.887Z,10.40
2023-03-20T16:40:20.950Z,10.40
2023-03-20T16:42:54.616Z,10.40
2023-03-20T16:45:29.960Z,10.40
2023-03-20T16:48:25.366Z,10.40
2023-03-20T16:51:11.655Z,10.40
2023-03-20T16:53:46.078Z,10.40
2023-03-20T16:56:17.195Z,10.30
2023-03-20T16:58:47.319Z,10.30
2023-03-20T17:01:19.270Z,10.30
2023-03-20T17:03:50.912Z,10.30
2023-03-20T17:06:47.725Z,10.30
2023-03-20T17:09:22.412Z,10.30
2023-03-20T17:11:52.279Z,10.30
2023-03-20T17:14:21.578Z,10.30
2023-03-20T17:16:52.309Z,10.30
2023-03-20T17:19:21.163Z,10.30
2023-03-20T17:21:49.366Z,10.30
2023-03-20T17:24:19.511Z,10.20
2023-03-20T17:26:53.286Z,10.20
2023-03-20T17:29:22.735Z,10.20
2023-03-20T17:31:50.844Z,10.30
2023-03-20T17:34:18.911Z,10.20
2023-03-20T17:36:46.946Z,10.20
2023-03-20T17:39:19.949Z,10.20
2023-03-20T17:41:48.227Z,10.20
2023-03-20T17:44:19.732Z,10.20
2023-03-20T17:46:58.349Z,10.20
2023-03-20T17:49:28.190Z,10.20
2023-03-20T17:51:57.488Z,10.20
2023-03-20T17:54:25.594Z,10.20
2023-03-20T17:56:53.600Z,10.30
2023-03-20T17:59:21.530Z,10.30
2023-03-20T18:01:51.091Z,10.20
2023-03-20T18:04:19.743Z,10.20
2023-03-20T18:06:49.049Z,10.20
2023-03-20T18:09:17.397Z,10.20
2023-03-20T18:11:45.382Z,10.20
2023-03-20T18:14:17.773Z,10.20
2023-03-20T18:16:45.827Z,10.20
2023-03-20T18:19:24.060Z,10.10
2023-03-20T18:21:52.048Z,10.10
2023-03-20T18:24:20.228Z,10.20
2023-03-20T18:26:48.392Z,10.20
2023-03-20T18:29:16.461Z,10.20
2023-03-20T18:31:44.584Z,10.20
2023-03-20T18:34:12.631Z,10.10
2023-03-20T18:36:42.197Z,10.10
2023-03-20T18:39:13.328Z,10.10
2023-03-20T18:41:41.371Z,10.10
2023-03-20T18:44:09.341Z,10.20
2023-03-20T18:46:37.670Z,10.20
2023-03-20T18:49:06.119Z,10.20
2023-03-20T18:51:34.381Z,10.20
2023-03-20T18:54:03.723Z,10.10
2023-03-20T18:56:33.912Z,10.10
2023-03-20T18:59:01.887Z,10.10
2023-03-20T19:01:29.929Z,10.10
2023-03-20T19:03:57.891Z,10.10
2023-03-20T19:06:26.524Z,10.10
2023-03-20T19:08:54.633Z,10.10
2023-03-20T19:11:23.954Z,10.10
2023-03-20T19:13:53.420Z,10.10
2023-03-20T19:16:24.408Z,10.10
2023-03-20T19:18:53.563Z,10.10
2023-03-20T19:21:25.912Z,10.10
2023-03-20T19:23:54.757Z,10.10
2023-03-20T19:26:25.813Z,10.10
2023-03-20T19:28:54.490Z,10.20
2023-03-20T19:31:23.326Z,10.20
2023-03-20T19:33:51.709Z,10.10
2023-03-20T19:36:26.932Z,10.10
2023-03-20T19:38:55.758Z,10.10
2023-03-20T19:41:25.405Z,10.20
2023-03-20T19:43:55.505Z,10.10
2023-03-20T19:46:39.105Z,10.20
2023-03-20T19:49:10.673Z,10.10
2023-03-20T19:51:38.646Z,10.20
2023-03-20T19:54:06.681Z,10.20
2023-03-20T19:56:36.045Z,10.20
2023-03-20T19:59:05.751Z,10.20
2023-03-20T20:01:33.840Z,10.10
2023-03-20T20:04:01.909Z,10.20
2023-03-20T20:06:32.587Z,10.20
2023-03-20T20:09:01.497Z,10.20
2023-03-20T20:11:30.309Z,10.20
2023-03-20T20:14:09.054Z,10.20
2023-03-20T20:16:39.686Z,10.20
2023-03-20T20:19:08.335Z,10.20
2023-03-20T20:22:19.593Z,10.20
2023-03-20T20:24:24.454Z,10.20
2023-03-20T20:27:07.049Z,10.20
2023-03-20T20:29:44.122Z,10.20
2023-03-20T20:32:12.223Z,10.30
2023-03-20T20:40:19.935Z,10.30
2023-03-20T20:42:51.413Z,10.20
2023-03-20T20:45:23.059Z,10.30
2023-03-20T20:47:51.774Z,10.20
2023-03-20T20:50:22.268Z,10.20
2023-03-20T20:52:51.023Z,10.30
2023-03-20T20:55:36.633Z,10.20
2023-03-20T20:58:05.789Z,10.20
2023-03-20T21:00:49.439Z,10.20
2023-03-20T21:03:19.106Z,10.30
2023-03-20T21:05:47.038Z,10.30
2023-03-20T21:08:16.389Z,10.30
2023-03-20T21:10:46.461Z,10.30
2023-03-20T21:13:14.613Z,10.30
2023-03-20T21:15:45.489Z,10.30
2023-03-20T21:18:13.623Z,10.30
2023-03-20T21:20:41.618Z,10.30
2023-03-20T21:23:09.578Z,10.30
2023-03-20T21:25:41.218Z,10.30
2023-03-20T21:28:10.407Z,10.30
2023-03-20T21:30:44.119Z,10.30
2023-03-20T21:33:21.867Z,10.30
2023-03-20T21:35:51.756Z,10.30
2023-03-20T21:41:10.613Z,10.40
2023-03-20T21:43:39.515Z,10.40
2023-03-20T21:55:12.742Z,10.30
2023-03-20T21:58:08.333Z,10.30
2023-03-20T22:03:09.152Z,10.40
2023-03-20T22:06:22.025Z,10.50
2023-03-20T22:20:32.757Z,10.40
2023-03-20T22:26:04.754Z,10.40
2023-03-20T22:29:07.197Z,10.40
2023-03-20T22:31:47.015Z,10.50
2023-03-20T22:37:24.606Z,10.50
2023-03-20T22:42:47.793Z,10.50
2023-03-20T22:45:04.019Z,10.50
2023-03-20T22:47:32.830Z,10.50
2023-03-20T22:50:00.897Z,10.50
2023-03-20T22:52:41.551Z,10.50
2023-03-20T22:55:15.218Z,10.70
2023-03-20T22:57:52.810Z,10.60
2023-03-20T23:00:28.097Z,10.60
2023-03-20T23:03:06.739Z,10.60
2023-03-20T23:05:40.906Z,10.50
2023-03-20T23:08:10.368Z,10.50
2023-03-20T23:10:43.629Z,10.40
2023-03-20T23:13:12.366Z,10.50
2023-03-20T23:15:41.387Z,10.50
2023-03-20T23:18:09.773Z,10.50
2023-03-20T23:20:38.059Z,10.40
2023-03-20T23:23:06.576Z,10.50
2023-03-20T23:25:41.578Z,10.50
2023-03-20T23:28:11.160Z,10.40
2023-03-20T23:30:48.152Z,10.40
2023-03-20T23:33:22.007Z,10.50
2023-03-20T23:35:51.391Z,10.40
2023-03-20T23:38:21.193Z,10.30
2023-03-20T23:40:53.110Z,10.30
2023-03-20T23:43:22.622Z,10.40
2023-03-20T23:45:51.061Z,10.40
2023-03-20T23:48:19.208Z,10.40
2023-03-20T23:50:53.170Z,10.40
2023-03-20T23:53:21.869Z,10.40
2023-03-20T23:55:51.396Z,10.30
2023-03-20T23:58:20.314Z,10.30
